createdAt,value
2017-11-12T00:01:20.939Z,67.40
2017-11-12T00:06:18.147Z,67.40
2017-11-12T00:08:46.819Z,67.40
2017-11-12T00:11:14.352Z,67.20
2017-11-12T00:13:42.692Z,67.80
2017-11-12T00:16:10.233Z,67.20
2017-11-12T00:21:07.019Z,67.40
2017-11-12T00:23:34.529Z,67.30
2017-11-12T00:26:02.102Z,67.30
2017-11-12T00:28:30.084Z,67.30
2017-11-12T00:30:57.615Z,65.80
2017-11-12T00:35:54.804Z,66.50
2017-11-12T00:38:22.323Z,67.00
2017-11-12T00:40:51.049Z,67.00
2017-11-12T00:43:18.609Z,67.00
2017-11-12T00:45:46.903Z,67.00
2017-11-12T00:48:14.432Z,66.90
2017-11-12T00:50:51.065Z,67.00
2017-11-12T00:53:19.535Z,66.80
2017-11-12T00:55:48.596Z,67.50
2017-11-12T01:00:45.056Z,66.90
2017-11-12T01:03:12.607Z,67.00
2017-11-12T01:05:40.884Z,67.10
2017-11-12T01:08:08.424Z,67.10
2017-11-12T01:10:35.997Z,67.10
2017-11-12T01:13:03.904Z,67.10
2017-11-12T01:15:31.429Z,67.20
2017-11-12T01:17:58.979Z,67.20
2017-11-12T01:20:27.280Z,67.20
2017-11-12T01:22:54.812Z,67.30
2017-11-12T01:25:22.360Z,67.30
2017-11-12T01:27:49.895Z,67.20
2017-11-12T01:30:17.404Z,67.10
2017-11-12T01:32:44.971Z,67.20
2017-11-12T01:35:12.516Z,67.30
2017-11-12T01:37:40.060Z,67.20
2017-11-12T01:40:07.616Z,67.20
2017-11-12T01:42:35.912Z,67.10
2017-11-12T01:45:04.187Z,67.10
2017-11-12T01:47:31.747Z,67.20
2017-11-12T01:49:59.651Z,67.20
2017-11-12T01:52:27.157Z,67.30
2017-11-12T01:54:54.707Z,67.30
2017-11-12T01:57:23.716Z,67.20
2017-11-12T01:59:51.236Z,67.30
2017-11-12T02:02:19.192Z,67.20
2017-11-12T02:04:46.747Z,67.30
2017-11-12T02:07:14.280Z,67.30
2017-11-12T02:09:41.875Z,67.30
2017-11-12T02:12:10.184Z,67.30
2017-11-12T02:14:38.483Z,67.90
2017-11-12T02:17:06.056Z,67.20
2017-11-12T02:19:33.595Z,67.20
2017-11-12T02:22:01.132Z,67.20
2017-11-12T02:24:29.463Z,67.70
2017-11-12T02:26:57.049Z,67.20
2017-11-12T02:29:25.395Z,67.10
2017-11-12T02:31:52.996Z,67.10
2017-11-12T02:34:20.968Z,67.00
2017-11-12T02:36:48.516Z,67.00
2017-11-12T02:39:16.095Z,67.20
2017-11-12T02:41:43.651Z,67.20
2017-11-12T02:44:11.189Z,67.20
2017-11-12T02:46:39.169Z,67.20
2017-11-12T02:49:06.682Z,67.20
2017-11-12T02:51:34.193Z,67.20
2017-11-12T02:54:01.748Z,67.20
2017-11-12T02:56:29.715Z,67.20
2017-11-12T02:58:57.236Z,67.20
2017-11-12T03:01:24.765Z,67.30
2017-11-12T03:03:53.036Z,67.80
2017-11-12T03:06:21.310Z,68.20
2017-11-12T03:08:49.627Z,67.80
2017-11-12T03:11:17.133Z,67.30
2017-11-12T03:13:44.670Z,67.20
2017-11-12T03:16:13.007Z,67.20
2017-11-12T03:18:40.511Z,67.20
2017-11-12T03:21:08.457Z,67.20
2017-11-12T03:23:36.035Z,67.20
2017-11-12T03:26:04.326Z,67.20
2017-11-12T03:28:31.868Z,67.20
2017-11-12T03:30:59.444Z,67.20
2017-11-12T03:33:26.959Z,67.20
2017-11-12T03:35:55.619Z,67.20
2017-11-12T03:38:23.932Z,67.20
2017-11-12T03:40:51.439Z,67.20
2017-11-12T03:43:18.948Z,67.10
2017-11-12T03:45:46.488Z,67.20
2017-11-12T03:48:13.996Z,67.20
2017-11-12T03:53:16.447Z,66.90
2017-11-12T03:55:43.956Z,66.80
2017-11-12T03:58:11.532Z,66.80
2017-11-12T04:00:39.051Z,66.70
2017-11-12T04:03:07.699Z,67.20
2017-11-12T04:05:35.996Z,67.10
2017-11-12T04:10:33.576Z,67.10
2017-11-12T04:13:02.655Z,66.60
2017-11-12T04:15:30.171Z,66.60
2017-11-12T04:17:57.701Z,66.70
2017-11-12T04:20:26.030Z,66.70
2017-11-12T04:22:54.331Z,67.30
2017-11-12T04:25:21.872Z,66.70
2017-11-12T04:27:49.839Z,66.80
2017-11-12T04:30:17.773Z,66.80
2017-11-12T04:32:45.307Z,66.80
2017-11-12T04:35:12.887Z,66.70
2017-11-12T04:37:40.407Z,66.70
2017-11-12T04:40:07.924Z,66.70
2017-11-12T04:42:35.478Z,66.50
2017-11-12T04:45:03.757Z,66.60
2017-11-12T04:47:31.291Z,66.70
2017-11-12T04:49:59.600Z,66.60
2017-11-12T04:52:27.116Z,66.50
2017-11-12T04:54:54.628Z,66.60
2017-11-12T04:57:22.971Z,67.20
2017-11-12T04:59:51.028Z,66.60
2017-11-12T05:02:19.818Z,66.50
2017-11-12T05:04:47.375Z,66.60
2017-11-12T05:07:14.891Z,66.60
2017-11-12T05:09:43.167Z,67.20
2017-11-12T05:12:11.485Z,67.20
2017-11-12T05:14:39.019Z,66.70
2017-11-12T05:17:07.303Z,66.70
2017-11-12T05:19:35.648Z,66.60
2017-11-12T05:22:03.162Z,66.60
2017-11-12T05:24:30.713Z,66.60
2017-11-12T05:26:58.676Z,66.60
2017-11-12T05:29:26.203Z,66.60
2017-11-12T05:31:54.553Z,66.50
2017-11-12T05:34:22.116Z,66.50
2017-11-12T05:36:49.661Z,66.50
2017-11-12T05:39:17.213Z,66.50
2017-11-12T05:41:44.760Z,66.50
2017-11-12T05:44:12.693Z,66.60
2017-11-12T05:46:41.719Z,66.60
2017-11-12T05:49:10.047Z,66.60
2017-11-12T05:54:06.405Z,66.50
2017-11-12T05:56:33.967Z,66.50
2017-11-12T05:59:01.489Z,66.50
2017-11-12T06:01:29.410Z,66.50
2017-11-12T06:03:57.731Z,66.40
2017-11-12T06:06:25.267Z,66.50
2017-11-12T06:08:53.545Z,66.50
2017-11-12T06:11:21.531Z,66.50
2017-11-12T06:13:49.195Z,66.60
2017-11-12T06:16:16.775Z,66.60
2017-11-12T06:18:45.119Z,67.20
2017-11-12T06:21:12.635Z,66.50
2017-11-12T06:23:40.159Z,66.40
2017-11-12T06:26:07.742Z,66.50
2017-11-12T06:28:36.029Z,66.50
2017-11-12T06:31:05.598Z,66.50
2017-11-12T06:33:34.281Z,66.50
2017-11-12T06:36:01.809Z,66.50
2017-11-12T06:38:29.320Z,66.50
2017-11-12T06:40:57.638Z,66.50
2017-11-12T06:43:25.954Z,67.10
2017-11-12T06:45:53.491Z,66.40
2017-11-12T06:48:21.807Z,66.40
2017-11-12T06:50:52.130Z,66.30
2017-11-12T06:53:19.656Z,66.30
2017-11-12T06:55:47.949Z,66.30
2017-11-12T06:58:15.487Z,66.30
2017-11-12T07:00:44.127Z,66.20
2017-11-12T07:03:11.862Z,66.20
2017-11-12T07:05:40.541Z,66.10
2017-11-12T07:08:08.089Z,66.10
2017-11-12T07:10:35.641Z,66.10
2017-11-12T07:13:04.306Z,66.20
2017-11-12T07:15:32.605Z,66.90
2017-11-12T07:20:29.811Z,66.10
2017-11-12T07:22:57.753Z,66.10
2017-11-12T07:25:25.305Z,66.10
2017-11-12T07:27:53.956Z,66.10
2017-11-12T07:32:50.420Z,66.10
2017-11-12T07:35:18.724Z,66.60
2017-11-12T07:37:46.268Z,66.10
2017-11-12T07:40:14.204Z,66.10
2017-11-12T07:42:41.757Z,66.10
2017-11-12T07:45:10.441Z,66.10
2017-11-12T07:47:37.995Z,66.10
2017-11-12T07:50:06.668Z,66.10
2017-11-12T07:52:34.679Z,65.90
2017-11-12T07:55:03.747Z,65.80
2017-11-12T07:57:31.283Z,66.00
2017-11-12T07:59:58.824Z,66.00
2017-11-12T08:02:26.374Z,66.00
2017-11-12T08:04:54.638Z,66.60
2017-11-12T08:07:22.930Z,66.60
2017-11-12T08:09:51.366Z,66.10
2017-11-12T08:12:18.896Z,66.00
2017-11-12T08:14:46.436Z,66.10
2017-11-12T08:17:14.388Z,66.00
2017-11-12T08:19:43.070Z,66.00
2017-11-12T08:22:12.128Z,65.80
2017-11-12T08:24:39.712Z,65.90
2017-11-12T08:27:07.667Z,65.90
2017-11-12T08:29:35.259Z,66.00
2017-11-12T08:32:03.943Z,65.90
2017-11-12T08:34:32.228Z,65.90
2017-11-12T08:36:59.762Z,65.90
2017-11-12T08:39:27.289Z,65.90
2017-11-12T08:41:55.183Z,66.00
2017-11-12T08:44:22.867Z,66.00
2017-11-12T08:46:50.587Z,66.10
2017-11-12T08:49:18.129Z,66.00
2017-11-12T08:51:45.823Z,66.00
2017-11-12T08:54:13.404Z,65.80
2017-11-12T08:56:41.703Z,65.90
2017-11-12T08:59:09.636Z,65.80
2017-11-12T09:01:37.228Z,65.70
2017-11-12T09:04:05.537Z,66.50
2017-11-12T09:06:33.049Z,65.80
2017-11-12T09:09:01.396Z,66.50
2017-11-12T09:11:30.045Z,65.80
2017-11-12T09:13:57.716Z,65.80
2017-11-12T09:16:25.253Z,65.80
2017-11-12T09:18:53.523Z,66.40
2017-11-12T09:21:21.104Z,66.00
2017-11-12T09:23:49.613Z,66.00
2017-11-12T09:26:17.558Z,65.90
2017-11-12T09:28:45.094Z,65.90
2017-11-12T09:31:13.402Z,66.40
2017-11-12T09:33:40.935Z,65.80
2017-11-12T09:36:09.581Z,65.80
2017-11-12T09:38:37.151Z,65.80
2017-11-12T09:41:04.668Z,65.80
2017-11-12T09:43:32.197Z,65.80
2017-11-12T09:46:01.253Z,65.70
2017-11-12T09:48:28.900Z,63.80
2017-11-12T09:53:32.200Z,64.10
2017-11-12T09:56:00.852Z,65.60
2017-11-12T09:58:29.895Z,65.60
2017-11-12T10:00:57.418Z,65.50
2017-11-12T10:03:25.687Z,65.60
2017-11-12T10:05:54.003Z,66.00
2017-11-12T10:08:22.272Z,63.80
2017-11-12T10:10:49.779Z,64.00
2017-11-12T10:13:17.350Z,64.40
2017-11-12T10:15:45.648Z,64.00
2017-11-12T10:18:13.155Z,64.20
2017-11-12T10:20:40.721Z,64.10
2017-11-12T10:23:08.659Z,65.30
2017-11-12T10:25:36.175Z,65.30
2017-11-12T10:28:05.474Z,65.30
2017-11-12T10:30:33.776Z,65.30
2017-11-12T10:33:01.329Z,65.20
2017-11-12T10:35:30.041Z,65.30
2017-11-12T10:37:58.176Z,65.10
2017-11-12T10:40:26.100Z,63.00
2017-11-12T10:42:53.644Z,62.30
2017-11-12T10:45:22.315Z,62.80
2017-11-12T10:47:50.596Z,61.90
2017-11-12T10:50:18.151Z,61.20
2017-11-12T10:52:46.083Z,61.00
2017-11-12T10:55:13.611Z,60.60
2017-11-12T10:57:41.547Z,62.30
2017-11-12T11:00:09.047Z,64.20
2017-11-12T11:02:36.548Z,64.50
2017-11-12T11:05:05.783Z,64.70
2017-11-12T11:07:33.303Z,64.50
2017-11-12T11:10:01.589Z,65.10
2017-11-12T11:12:30.660Z,63.30
2017-11-12T11:14:59.836Z,64.40
2017-11-12T11:17:27.352Z,64.50
2017-11-12T11:19:54.941Z,64.40
2017-11-12T11:22:23.611Z,64.10
2017-11-12T11:24:52.271Z,65.00
2017-11-12T11:27:19.857Z,64.30
2017-11-12T11:29:48.134Z,61.90
2017-11-12T11:32:15.652Z,61.30
2017-11-12T11:34:44.388Z,61.50
2017-11-12T11:37:13.040Z,61.40
2017-11-12T11:39:41.316Z,60.90
2017-11-12T11:42:09.984Z,60.50
2017-11-12T11:44:38.287Z,61.00
2017-11-12T11:47:05.836Z,60.50
2017-11-12T11:49:33.430Z,60.00
2017-11-12T11:52:00.981Z,59.70
2017-11-12T11:54:29.644Z,60.00
2017-11-12T11:56:58.132Z,60.00
2017-11-12T12:01:54.891Z,60.30
2017-11-12T12:04:23.620Z,62.70
2017-11-12T12:06:51.135Z,63.40
2017-11-12T12:09:19.495Z,63.70
2017-11-12T12:16:44.855Z,63.80
2017-11-12T12:19:12.824Z,63.80
2017-11-12T12:21:41.105Z,63.90
2017-11-12T12:24:09.015Z,64.00
2017-11-12T12:26:37.327Z,64.10
2017-11-12T12:29:05.992Z,64.20
2017-11-12T12:31:35.036Z,64.30
2017-11-12T12:34:02.623Z,64.40
2017-11-12T12:36:30.136Z,64.60
2017-11-12T12:38:58.444Z,65.30
2017-11-12T12:41:26.759Z,64.90
2017-11-12T12:43:54.308Z,65.10
2017-11-12T12:46:22.595Z,65.20
2017-11-12T12:48:50.173Z,65.50
2017-11-12T12:53:47.775Z,66.00
2017-11-12T12:56:16.832Z,65.50
2017-11-12T12:58:44.357Z,65.70
2017-11-12T13:01:12.310Z,65.90
2017-11-12T13:03:39.898Z,65.80
2017-11-12T13:06:07.448Z,65.90
2017-11-12T13:08:35.772Z,66.00
2017-11-12T13:11:04.842Z,65.90
2017-11-12T13:13:32.371Z,66.00
2017-11-12T13:15:59.920Z,66.10
2017-11-12T13:18:27.943Z,66.00
2017-11-12T13:20:55.480Z,66.00
2017-11-12T13:23:23.411Z,66.00
2017-11-12T13:25:51.376Z,66.00
2017-11-12T13:28:19.689Z,66.10
2017-11-12T13:30:47.240Z,66.10
2017-11-12T13:33:14.827Z,66.10
2017-11-12T13:35:42.375Z,66.10
2017-11-12T13:38:09.933Z,66.20
2017-11-12T13:40:37.899Z,66.10
2017-11-12T13:43:05.444Z,66.10
2017-11-12T13:45:32.996Z,66.30
2017-11-12T13:48:00.988Z,66.30
2017-11-12T13:50:29.728Z,66.40
2017-11-12T13:52:58.066Z,67.50
2017-11-12T13:55:25.645Z,66.50
2017-11-12T13:57:53.693Z,66.70
2017-11-12T14:00:21.349Z,66.20
2017-11-12T14:02:48.938Z,66.40
2017-11-12T14:05:16.887Z,66.10
2017-11-12T14:07:44.825Z,66.40
2017-11-12T14:10:12.424Z,66.50
2017-11-12T14:12:39.952Z,65.50
2017-11-12T14:15:07.883Z,64.30
2017-11-12T14:17:35.444Z,63.60
2017-11-12T14:20:02.971Z,63.30
2017-11-12T14:25:00.244Z,62.50
2017-11-12T14:27:27.780Z,64.10
2017-11-12T14:29:55.923Z,65.30
2017-11-12T14:32:24.668Z,66.40
2017-11-12T14:34:52.295Z,66.40
2017-11-12T14:37:19.862Z,66.60
2017-11-12T14:39:47.846Z,66.70
2017-11-12T14:42:15.782Z,66.60
2017-11-12T14:44:44.102Z,66.60
2017-11-12T14:47:11.696Z,66.60
2017-11-12T14:49:39.251Z,66.70
2017-11-12T14:52:06.792Z,66.70
2017-11-12T14:54:35.140Z,66.50
2017-11-12T14:57:02.678Z,66.50
2017-11-12T14:59:30.996Z,66.50
2017-11-12T15:01:59.704Z,66.50
2017-11-12T15:04:27.282Z,66.40
2017-11-12T15:06:55.590Z,66.50
2017-11-12T15:09:23.564Z,66.50
2017-11-12T15:11:51.922Z,66.40
2017-11-12T15:14:20.236Z,67.10
2017-11-12T15:19:16.747Z,66.50
2017-11-12T15:21:45.058Z,67.10
2017-11-12T15:24:12.594Z,66.50
2017-11-12T15:26:41.676Z,66.50
2017-11-12T15:29:09.243Z,66.40
2017-11-12T15:31:37.579Z,67.20
2017-11-12T15:34:05.887Z,66.50
2017-11-12T15:36:34.187Z,66.50
2017-11-12T15:41:32.211Z,66.60
2017-11-12T15:46:28.704Z,66.10
2017-11-12T15:48:57.008Z,67.00
2017-11-12T15:51:24.556Z,66.60
2017-11-12T15:53:53.289Z,66.70
2017-11-12T15:56:20.869Z,66.70
2017-11-12T15:58:48.828Z,66.70
2017-11-12T16:01:16.391Z,67.00
2017-11-12T16:03:45.449Z,67.00
2017-11-12T16:06:13.028Z,66.80
2017-11-12T16:08:40.668Z,67.00
2017-11-12T16:11:08.218Z,67.00
2017-11-12T16:13:35.813Z,66.80
2017-11-12T16:16:03.497Z,67.00
2017-11-12T16:18:31.039Z,67.00
2017-11-12T16:20:58.585Z,67.10
2017-11-12T16:23:27.303Z,66.80
2017-11-12T16:25:54.844Z,66.90
2017-11-12T16:28:22.375Z,67.00
2017-11-12T16:30:51.094Z,67.00
2017-11-12T16:33:18.653Z,66.70
2017-11-12T16:35:46.974Z,66.80
2017-11-12T16:43:12.346Z,67.00
2017-11-12T16:45:39.948Z,67.00
2017-11-12T17:03:44.198Z,67.20
2017-11-12T17:06:13.293Z,67.10
2017-11-12T17:08:41.260Z,67.10
2017-11-12T17:11:10.027Z,67.10
2017-11-12T17:13:37.582Z,67.70
2017-11-12T17:16:05.220Z,67.70
2017-11-12T17:18:33.206Z,67.80
2017-11-12T17:21:00.753Z,68.00
2017-11-12T17:23:28.291Z,68.00
2017-11-12T17:25:56.399Z,68.00
2017-11-12T17:28:23.991Z,68.00
2017-11-12T17:30:52.478Z,68.70
2017-11-12T17:33:21.007Z,68.70
2017-11-12T17:35:49.758Z,68.90
2017-11-12T17:38:17.711Z,68.20
2017-11-12T17:40:45.693Z,68.40
2017-11-12T17:43:14.007Z,68.80
2017-11-12T17:45:41.598Z,68.30
2017-11-12T17:48:09.179Z,68.20
2017-11-12T17:53:05.935Z,68.20
2017-11-12T17:55:33.900Z,68.20
2017-11-12T17:58:01.466Z,68.40
2017-11-12T18:00:29.523Z,68.50
2017-11-12T18:02:57.972Z,68.40
2017-11-12T18:05:25.509Z,68.30
2017-11-12T18:07:53.500Z,68.30
2017-11-12T18:10:21.495Z,68.40
2017-11-12T18:15:18.356Z,68.50
2017-11-12T18:17:45.930Z,68.50
2017-11-12T18:20:13.909Z,68.60
2017-11-12T18:22:41.876Z,68.40
2017-11-12T18:25:10.692Z,68.40
2017-11-12T18:27:38.300Z,68.50
2017-11-12T18:30:06.654Z,68.50
2017-11-12T18:32:34.263Z,68.40
2017-11-12T18:35:02.594Z,69.20
2017-11-12T18:37:30.140Z,68.50
2017-11-12T18:39:58.557Z,68.50
2017-11-12T18:42:26.201Z,68.90
2017-11-12T18:44:53.760Z,68.80
2017-11-12T18:47:21.480Z,68.70
2017-11-12T18:49:49.808Z,69.20
2017-11-12T18:52:30.152Z,68.70
2017-11-12T18:54:58.601Z,68.50
2017-11-12T18:57:32.369Z,68.50
2017-11-12T19:00:02.935Z,68.50
2017-11-12T19:02:36.137Z,68.70
2017-11-12T19:08:08.083Z,68.70
2017-11-12T19:10:35.635Z,68.50
2017-11-12T19:13:03.171Z,68.60
2017-11-12T19:15:30.732Z,68.70
2017-11-12T19:31:29.129Z,68.50
2017-11-12T19:36:26.423Z,68.60
2017-11-12T19:38:54.781Z,68.80
2017-11-12T19:41:22.315Z,68.20
2017-11-12T19:43:50.624Z,68.10
2017-11-12T19:46:18.204Z,68.20
2017-11-12T19:48:46.509Z,67.80
2017-11-12T19:51:14.027Z,67.90
2017-11-12T19:53:41.634Z,68.00
2017-11-12T19:56:09.239Z,67.90
2017-11-12T19:58:36.852Z,68.00
2017-11-12T20:01:04.441Z,68.00
2017-11-12T20:03:32.780Z,68.10
2017-11-12T20:06:01.108Z,68.60
2017-11-12T20:08:28.691Z,68.10
2017-11-12T20:10:56.250Z,68.30
2017-11-12T20:13:23.838Z,68.40
2017-11-12T20:15:53.070Z,68.30
2017-11-12T20:18:21.428Z,68.50
2017-11-12T20:20:49.132Z,68.50
2017-11-12T20:23:16.701Z,68.50
2017-11-12T20:25:44.247Z,68.60
2017-11-12T20:28:12.610Z,68.80
2017-11-12T20:30:40.976Z,68.70
2017-11-12T20:33:08.517Z,68.70
2017-11-12T20:35:36.832Z,69.30
2017-11-12T20:38:04.425Z,68.80
2017-11-12T20:40:31.982Z,68.80
2017-11-12T20:42:59.531Z,68.70
2017-11-12T20:45:27.119Z,68.70
2017-11-12T20:47:55.136Z,68.60
2017-11-12T20:50:23.462Z,68.70
2017-11-12T20:52:52.259Z,68.60
2017-11-12T20:55:20.593Z,69.30
2017-11-12T20:57:48.169Z,68.60
2017-11-12T21:00:15.982Z,68.50
2017-11-12T21:05:16.006Z,68.60
2017-11-12T21:07:44.492Z,68.90
2017-11-12T21:10:12.919Z,69.00
2017-11-12T21:12:40.520Z,68.50
2017-11-12T21:15:08.097Z,68.40
2017-11-12T21:17:36.047Z,68.60
2017-11-12T21:33:48.767Z,69.50
2017-11-12T21:36:20.805Z,69.50
2017-11-12T21:38:48.377Z,68.90
2017-11-12T21:41:16.676Z,68.90
2017-11-12T21:43:45.724Z,69.00
2017-11-12T21:46:13.315Z,69.00
2017-11-12T21:48:41.993Z,69.10
2017-11-12T21:51:09.610Z,69.00
2017-11-12T21:53:37.212Z,68.80
2017-11-12T21:56:04.804Z,69.00
2017-11-12T21:58:32.755Z,69.00
2017-11-12T22:01:00.728Z,68.80
2017-11-12T22:03:29.041Z,69.50
2017-11-12T22:05:56.593Z,68.80
2017-11-12T22:08:24.260Z,68.80
2017-11-12T22:10:51.803Z,68.80
2017-11-12T22:13:19.348Z,68.80
2017-11-12T22:15:47.716Z,69.40
2017-11-12T22:18:15.301Z,68.80
2017-11-12T22:20:42.859Z,68.90
2017-11-12T22:23:10.556Z,68.90
2017-11-12T22:25:38.125Z,68.90
2017-11-12T22:28:05.664Z,68.80
2017-11-12T22:30:33.232Z,68.80
2017-11-12T22:33:00.776Z,68.80
2017-11-12T22:35:28.332Z,68.90
2017-11-12T22:37:55.883Z,68.90
2017-11-12T22:40:23.421Z,68.90
2017-11-12T22:42:51.741Z,69.40
2017-11-12T22:45:20.436Z,68.90
2017-11-12T22:47:48.376Z,69.00
2017-11-12T22:50:16.377Z,69.00
2017-11-12T22:52:44.327Z,69.00
2017-11-12T22:55:11.855Z,69.00
2017-11-12T22:57:40.139Z,69.70
2017-11-12T23:00:08.473Z,69.70
2017-11-12T23:02:36.409Z,69.20
2017-11-12T23:05:04.396Z,69.00
2017-11-12T23:07:32.007Z,69.10
2017-11-12T23:10:00.308Z,69.70
2017-11-12T23:12:28.242Z,69.10
2017-11-12T23:14:55.808Z,69.20
2017-11-12T23:17:23.328Z,69.20
2017-11-12T23:19:50.860Z,69.20
2017-11-12T23:27:16.927Z,69.70
2017-11-12T23:29:44.544Z,69.10
2017-11-12T23:32:12.096Z,69.10
2017-11-12T23:34:39.707Z,69.20
2017-11-12T23:37:07.293Z,69.10
2017-11-12T23:39:34.821Z,69.30
2017-11-12T23:42:02.338Z,69.10
2017-11-12T23:44:30.054Z,69.20
2017-11-12T23:46:58.053Z,69.20
2017-11-12T23:49:26.563Z,69.00
2017-11-12T23:51:54.143Z,69.00
2017-11-12T23:54:21.665Z,69.00
2017-11-12T23:56:49.243Z,69.00
2017-11-12T23:59:16.801Z,69.00
